LIPY 200020Z AUTO 17003KT 9999 NCD 13/09 Q1026 LIPY 192350Z AUTO 16003KT 130V190 9999 NCD 13/10 Q1026 LIPY 192320Z AUTO 19004KT 9999 NCD 13/10 Q1026 LIPY 192250Z AUTO 19003KT 9999 NCD 13/10 Q1026 LIPY 192220Z AUTO 17002KT 9999 NCD 14/10 Q1026 LIPY 192150Z AUTO VRB02KT 9999 NCD 14/10 Q1026 LIPY 192120Z AUTO 19002KT 9999 NCD 15/10 Q1026 LIPY 192050Z AUTO VRB01KT 9999 NCD 16/10 Q1026 LIPY 192020Z AUTO VRB01KT 9999 NCD 16/10 Q1026 LIPY 191950Z AUTO VRB02KT 9999 NCD 16/10 Q1026 LIPY 191920Z AUTO VRB01KT 9999 NCD 18/10 Q1026 LIPY 191850Z AUTO VRB02KT 9999 NCD 19/10 Q1026 LIPY 191820Z AUTO VRB02KT 9999 NCD 19/09 Q1026 LIPY 191750Z AUTO 10004KT 060V140 9999 NCD 21/08 Q1025 LIPY 191720Z AUTO 12004KT 090V180 9999 NCD 22/06 Q1025 LIPY 191650Z AUTO 13005KT 100V170 9999 NCD 22/04 Q1025 LIPY 191620Z AUTO 11005KT 060V150 9999 NCD 23/05 Q1025 LIPY 191550Z AUTO 09006KT 060V130 9999 NCD 23/07 Q1026 LIPY 191520Z AUTO 08008KT 060V120 9999 NCD 23/07 Q1026 LIPY 191450Z AUTO 07010KT 9999 NCD 22/08 Q1026 LIPY 191420Z AUTO 07010KT 9999 NCD 23/08 Q1026 LIPY 191350Z AUTO 07011KT 9999 NCD 23/08 Q1026 LIPY 191320Z AUTO 07011KT 9999 NCD 22/08 Q1026 LIPY 191250Z AUTO 07010KT 9999 NCD 22/09 Q1027 LIPY 191220Z AUTO 08010KT 9999 NCD 22/08 Q1027 LIPY 191150Z AUTO 07012KT 9999 NCD 22/06 Q1027 LIPY 191120Z AUTO 06011KT 9999 NCD 22/05 Q1027 LIPY 191050Z AUTO 06010KT 9999 NCD 22/07 Q1027 LIPY 191020Z AUTO 05010KT 9999 NCD 22/06 Q1027 LIPY 190950Z AUTO 05009KT 010V070 9999 NCD 22/08 Q1027 LIPY 190920Z AUTO 05008KT 9999 NCD 22/10 Q1027 LIPY 190850Z AUTO 05007KT 020V080 9999 NCD 22/10 Q1027 LIPY 190820Z AUTO 04007KT 010V070 9999 NCD 22/09 Q1027 LIPY 190750Z AUTO VRB03KT 9999 NCD 22/09 Q1027 LIPY 190720Z AUTO VRB02KT 9999 NCD 21/09 Q1027 LIPY 190650Z AUTO 14005KT 110V180 9999 NCD 20/10 Q1027 LIPY 190620Z AUTO VRB03KT 9999 NCD 19/13 Q1027 LIPY 190550Z AUTO 23003KT 190V260 9999 NCD 16/13 Q1027 LIPY 190520Z AUTO VRB02KT 9999 NCD 15/12 Q1026 LIPY 190450Z AUTO 19003KT 9999 NCD 13/11 Q1026 LIPY 190420Z AUTO 19002KT 9999 NCD 12/11 Q1026 LIPY 190350Z AUTO 19003KT 9999 NCD 12/10 Q1026 LIPY 190320Z AUTO 18003KT 150V210 9999 NCD 12/11 Q1025 LIPY 190250Z AUTO 20003KT 9999 NCD 12/11 Q1025 LIPY 190220Z AUTO 18003KT 9999 NCD 12/11 Q1025 LIPY 190150Z AUTO 23003KT 9999 NCD 12/10 Q1025 LIPY 190120Z AUTO VRB02KT 9999 NCD 13/11 Q1025 LIPY 190050Z AUTO 19003KT 9999 NCD 13/12 Q1025 LIPY 190020Z AUTO 19003KT 160V220 9999 NCD 13/12 Q1025 LIPY 182350Z AUTO 18003KT 160V220 9999 NCD 13/12 Q1025 LIPY 182320Z AUTO 19003KT 160V220 9999 NCD 13/11 Q1025 LIPY 182250Z AUTO 18003KT 9999 NCD 14/12 Q1025 LIPY 182220Z AUTO 18004KT 9999 NCD 14/11 Q1024 LIPY 182150Z AUTO 18003KT 9999 NCD 15/12 Q1024 LIPY 182120Z AUTO 18002KT 9999 NCD 15/12 Q1024 LIPY 182050Z AUTO 17003KT 9999 NCD 16/12 Q1024 LIPY 182020Z AUTO 15003KT 9999 NCD 16/12 Q1024 LIPY 181950Z AUTO VRB01KT 9999 NCD 17/13 Q1024 LIPY 181920Z AUTO 17003KT 140V200 9999 NCD 18/13 Q1023 LIPY 181850Z AUTO 16002KT 9999 NCD 20/13 Q1023 LIPY 181820Z AUTO VRB01KT 9999 NCD 20/13 Q1023 LIPY 181750Z AUTO 03002KT 9999 NCD 21/14 Q1022 LIPY 181720Z AUTO 04005KT 9999 NCD 21/13 Q1022 LIPY 181650Z AUTO 03006KT 9999 NCD 22/13 Q1022 LIPY 181620Z AUTO 36007KT 9999 NCD 22/13 Q1022 LIPY 181520Z AUTO 35008KT 330V030 9999 NCD 22/11 Q1022 LIPY 181450Z AUTO 36008KT 320V050 9999 NCD 23/13 Q1022 LIPY 181420Z AUTO 35006KT 310V030 9999 NCD 23/11 Q1022 LIPY 181350Z AUTO 34007KT 300V020 9999 NCD 23/11 Q1022 LIPY 181320Z AUTO 01008KT 340V050 9999 NCD 23/14 Q1022 LIPY 181250Z AUTO 36006KT 320V030 9999 NCD 23/14 Q1022

METAR Messwerte "FALCONARA (IT-AF" LIPY

Zurück zur Übersicht

Ortsname
Ländercode / m ü. NN
Zeit Temperatur Taupunkt Rel.
Luftfeuchte
Luftdruck:
Altimeter
NN
Station
Wind in Beaufort
(Knoten)
Sichtweite
(Meter)
Wolken
(Meter über Grund)
Wettererscheinung
FALCONARA (IT-AF
IT 11
Fr 20.05. 02:2013977 %1026
1026
1025
S 2 (3)>= 10000  
FALCONARA (IT-AF
IT 11
Fr 20.05. 01:50131082 %1026
1026
1025
SSO 2 (3)
SO - S
>= 10000  
FALCONARA (IT-AF
IT 11
Fr 20.05. 01:20131082 %1026
1026
1025
S 2 (4)>= 10000  
FALCONARA (IT-AF
IT 11
Fr 20.05. 00:50131082 %1026
1026
1025
S 2 (3)>= 10000  
FALCONARA (IT-AF
IT 11
Fr 20.05. 00:20141077 %1026
1026
1025
S 1 (2)>= 10000  
FALCONARA (IT-AF
IT 11
Do 19.05. 23:50141077 %1026
1026
1025
Uml 1 (2)>= 10000  
FALCONARA (IT-AF
IT 11
Do 19.05. 23:20151072 %1026
1026
1025
S 1 (2)>= 10000  
FALCONARA (IT-AF
IT 11
Do 19.05. 22:50161068 %1026
1026
1025
Uml 1 (1)>= 10000  
FALCONARA (IT-AF
IT 11
Do 19.05. 22:20161068 %1026
1026
1025
Uml 1 (1)>= 10000  
FALCONARA (IT-AF
IT 11
Do 19.05. 21:50161068 %1026
1026
1025
Uml 1 (2)>= 10000  
FALCONARA (IT-AF
IT 11
Do 19.05. 21:20181059 %1026
1026
1025
Uml 1 (1)>= 10000  
FALCONARA (IT-AF
IT 11
Do 19.05. 20:50191056 %1026
1026
1025
Uml 1 (2)>= 10000  
FALCONARA (IT-AF
IT 11
Do 19.05. 20:2019952 %1026
1026
1025
Uml 1 (2)>= 10000  
FALCONARA (IT-AF
IT 11
Do 19.05. 19:5021843 %1025
1025
1024
O 2 (4)
ONO - SO
>= 10000  
FALCONARA (IT-AF
IT 11
Do 19.05. 19:2022635 %1025
1025
1024
OSO 2 (4)
O - S
>= 10000  
FALCONARA (IT-AF
IT 11
Do 19.05. 18:5022431 %1025
1025
1024
SO 2 (5)
O - S
>= 10000  
FALCONARA (IT-AF
IT 11
Do 19.05. 18:2023531 %1025
1025
1024
OSO 2 (5)
ONO - SSO
>= 10000  
FALCONARA (IT-AF
IT 11
Do 19.05. 17:5023736 %1026
1026
1025
O 2 (6)
ONO - SO
>= 10000  
FALCONARA (IT-AF
IT 11
Do 19.05. 17:2023736 %1026
1026
1025
O 3 (8)
ONO - OSO
>= 10000  
FALCONARA (IT-AF
IT 11
Do 19.05. 16:5022841 %1026
1026
1025
ONO 3 (10)>= 10000  
FALCONARA (IT-AF
IT 11
Do 19.05. 16:2023838 %1026
1026
1025
ONO 3 (10)>= 10000  
FALCONARA (IT-AF
IT 11
Do 19.05. 15:5023838 %1026
1026
1025
ONO 4 (11)>= 10000  
FALCONARA (IT-AF
IT 11
Do 19.05. 15:2022841 %1026
1026
1025
ONO 4 (11)>= 10000  
FALCONARA (IT-AF
IT 11
Do 19.05. 14:5022943 %1027
1027
1026
ONO 3 (10)>= 10000  
FALCONARA (IT-AF
IT 11
Do 19.05. 14:2022841 %1027
1027
1026
O 3 (10)>= 10000  
FALCONARA (IT-AF
IT 11
Do 19.05. 13:5022635 %1027
1027
1026
ONO 4 (12)>= 10000  
FALCONARA (IT-AF
IT 11
Do 19.05. 13:2022533 %1027
1027
1026
ONO 4 (11)>= 10000  
FALCONARA (IT-AF
IT 11
Do 19.05. 12:5022738 %1027
1027
1026
ONO 3 (10)>= 10000  
FALCONARA (IT-AF
IT 11
Do 19.05. 12:2022635 %1027
1027
1026
NO 3 (10)>= 10000  
FALCONARA (IT-AF
IT 11
Do 19.05. 11:5022841 %1027
1027
1026
NO 3 (9)
N - ONO
>= 10000  
FALCONARA (IT-AF
IT 11
Do 19.05. 11:20221046 %1027
1027
1026
NO 3 (8)>= 10000  
FALCONARA (IT-AF
IT 11
Do 19.05. 10:50221046 %1027
1027
1026
NO 3 (7)
NNO - O
>= 10000  
FALCONARA (IT-AF
IT 11
Do 19.05. 10:2022943 %1027
1027
1026
NO 3 (7)
N - ONO
>= 10000  
FALCONARA (IT-AF
IT 11
Do 19.05. 09:5022943 %1027
1027
1026
Uml 2 (3)>= 10000  
FALCONARA (IT-AF
IT 11
Do 19.05. 09:2021946 %1027
1027
1026
Uml 1 (2)>= 10000  
FALCONARA (IT-AF
IT 11
Do 19.05. 08:50201053 %1027
1027
1026
SO 2 (5)
OSO - S
>= 10000  
FALCONARA (IT-AF
IT 11
Do 19.05. 08:20191368 %1027
1027
1026
Uml 2 (3)>= 10000  
FALCONARA (IT-AF
IT 11
Do 19.05. 07:50161382 %1027
1027
1026
SW 2 (3)
S - W
>= 10000  
FALCONARA (IT-AF
IT 11
Do 19.05. 07:20151282 %1026
1026
1025
Uml 1 (2)>= 10000  
FALCONARA (IT-AF
IT 11
Do 19.05. 06:50131188 %1026
1026
1025
S 2 (3)>= 10000  
FALCONARA (IT-AF
IT 11
Do 19.05. 06:20121194 %1026
1026
1025
S 1 (2)>= 10000  
FALCONARA (IT-AF
IT 11
Do 19.05. 05:50121088 %1026
1026
1025
S 2 (3)>= 10000  
FALCONARA (IT-AF
IT 11
Do 19.05. 05:20121194 %1025
1025
1024
S 2 (3)
SSO - SSW
>= 10000  
FALCONARA (IT-AF
IT 11
Do 19.05. 04:50121194 %1025
1025
1024
SSW 2 (3)>= 10000  
FALCONARA (IT-AF
IT 11
Do 19.05. 04:20121194 %1025
1025
1024
S 2 (3)>= 10000  
FALCONARA (IT-AF
IT 11
Do 19.05. 03:50121088 %1025
1025
1024
SW 2 (3)>= 10000  
FALCONARA (IT-AF
IT 11
Do 19.05. 03:20131188 %1025
1025
1024
Uml 1 (2)>= 10000  
FALCONARA (IT-AF
IT 11
Do 19.05. 02:50131294 %1025
1025
1024
S 2 (3)>= 10000  
FALCONARA (IT-AF
IT 11
Do 19.05. 02:20131294 %1025
1025
1024
S 2 (3)
SSO - SW
>= 10000  
FALCONARA (IT-AF
IT 11
Do 19.05. 01:50131294 %1025
1025
1024
S 2 (3)
SSO - SW
>= 10000  
FALCONARA (IT-AF
IT 11
Do 19.05. 01:20131188 %1025
1025
1024
S 2 (3)
SSO - SW
>= 10000  
FALCONARA (IT-AF
IT 11
Do 19.05. 00:50141288 %1025
1025
1024
S 2 (3)>= 10000  
FALCONARA (IT-AF
IT 11
Do 19.05. 00:20141182 %1024
1024
1023
S 2 (4)>= 10000  
FALCONARA (IT-AF
IT 11
Mi 18.05. 23:50151282 %1024
1024
1023
S 2 (3)>= 10000  
FALCONARA (IT-AF
IT 11
Mi 18.05. 23:20151282 %1024
1024
1023
S 1 (2)>= 10000  
FALCONARA (IT-AF
IT 11
Mi 18.05. 22:50161277 %1024
1024
1023
S 2 (3)>= 10000  
FALCONARA (IT-AF
IT 11
Mi 18.05. 22:20161277 %1024
1024
1023
SSO 2 (3)>= 10000  
FALCONARA (IT-AF
IT 11
Mi 18.05. 21:50171377 %1024
1024
1023
Uml 1 (1)>= 10000  
FALCONARA (IT-AF
IT 11
Mi 18.05. 21:20181373 %1023
1023
1022
S 2 (3)
SO - SSW
>= 10000  
FALCONARA (IT-AF
IT 11
Mi 18.05. 20:50201364 %1023
1023
1022
SSO 1 (2)>= 10000  
FALCONARA (IT-AF
IT 11
Mi 18.05. 20:20201364 %1023
1023
1022
Uml 1 (1)>= 10000  
FALCONARA (IT-AF
IT 11
Mi 18.05. 19:50211464 %1022
1022
1021
NNO 1 (2)>= 10000  
FALCONARA (IT-AF
IT 11
Mi 18.05. 19:20211360 %1022
1022
1021
NO 2 (5)>= 10000  
FALCONARA (IT-AF
IT 11
Mi 18.05. 18:50221357 %1022
1022
1021
NNO 2 (6)>= 10000  
FALCONARA (IT-AF
IT 11
Mi 18.05. 18:20221357 %1022
1022
1021
N 3 (7)>= 10000  
FALCONARA (IT-AF
IT 11
Mi 18.05. 17:20221150 %1022
1022
1021
N 3 (8)
NNW - NNO
>= 10000  
FALCONARA (IT-AF
IT 11
Mi 18.05. 16:50231353 %1022
1022
1021
N 3 (8)
NW - NO
>= 10000  
FALCONARA (IT-AF
IT 11
Mi 18.05. 16:20231147 %1022
1022
1021
N 2 (6)
NW - NNO
>= 10000  
FALCONARA (IT-AF
IT 11
Mi 18.05. 15:50231147 %1022
1022
1021
NNW 3 (7)
WNW - NNO
>= 10000  
FALCONARA (IT-AF
IT 11
Mi 18.05. 15:20231457 %1022
1022
1021
N 3 (8)
NNW - NO
>= 10000  
FALCONARA (IT-AF
IT 11
Mi 18.05. 14:50231457 %1022
1022
1021
N 2 (6)
NW - NNO
>= 10000  

Altimeter: Einstellung am Altimeter (Höhenmesser), die Höhe 0 muss auf diesen Luftdruckwert zeigen, damit das Gerät die Stationshöhe richtig anzeigt.

NN: Luftdruck reduziert auf "Normal Null", auf Meereshöhe, dieser von der Temperatur abhängige Wert wird bisweilen unkorrekt einfach als "Luftdruck" bezeichnet. Eigentlich nur eine fiktive Größe, die es erlaubt, Stationen auf unterschiedlichen Höhen miteinander zu vergleichen.

Station: Realer Luftdruck an der Station.